usa flag      colorado flag

Language: 

TigerDenWX History Data from Weather Underground


TigerDenWX Weather Station Historical Data
 
Daily Summary for October 17, 2017 Units:  English    Metric   Both
« Previous Day
Next Day »
Daily Weekly Monthly Yearly Custom
  Current: High: Low: Average:
Temperature: 63.4 °F 76.9 °F 39.9 °F 56.8 °F
Dew Point: 24.9 °F 26.1 °F -0.7 °F 15.5 °F
Humidity: 23 % 54 % 5 % 25 %
Wind Speed: 0.0 mph 5.0 mph 0.0 mph 0.4 mph
Wind Gust: 0.0 mph 9.0 mph - -
Wind:Calm - - SE
Pressure: 29.94 in 30.14 in 29.94 in -
Precipitation: 0.00 in      
Historical Graphs
 
 
Tabular Data for October 17, 2017
Time Temperature Dew Point Pressure Wind Wind Speed Wind Gust Humidity Rainfall Rate (Hourly) solar
00:00 42.5 °F 24.7 °F 30.14 in Calm   1.0 mph 49 % 0.00 in 0 W/m2
00:05 42.4 °F 25.1 °F 30.14 in Calm     50 % 0.00 in 0 W/m2
00:10 42.2 °F 24.9 °F 30.14 in Calm     50 % 0.00 in 0 W/m2
00:11 42.2 °F 25.3 °F 30.14 in Calm     51 % 0.00 in 0 W/m2
00:16 41.8 °F 25.0 °F 30.14 in Calm     51 % 0.00 in 0 W/m2
00:21 41.6 °F 24.3 °F 30.14 in Calm     50 % 0.00 in 0 W/m2
00:26 41.6 °F 25.3 °F 30.14 in Calm     52 % 0.00 in 0 W/m2
00:31 41.5 °F 26.1 °F 30.13 in Calm     54 % 0.00 in 0 W/m2
00:36 41.3 °F 25.9 °F 30.13 in Calm     54 % 0.00 in 0 W/m2
00:41 41.0 °F 25.2 °F 30.13 in Calm     53 % 0.00 in 0 W/m2
00:46 40.7 °F 24.4 °F 30.13 in Calm     52 % 0.00 in 0 W/m2
00:51 40.8 °F 25.0 °F 30.12 in Calm     53 % 0.00 in 0 W/m2
00:56 40.9 °F 24.1 °F 30.13 in Calm   2.0 mph 51 % 0.00 in 0 W/m2
01:02 40.8 °F 23.1 °F 30.13 in Calm   2.0 mph 49 % 0.00 in 0 W/m2
01:07 40.8 °F 22.6 °F 30.13 in Calm     48 % 0.00 in 0 W/m2
01:12 40.7 °F 23.0 °F 30.13 in Calm   1.0 mph 49 % 0.00 in 0 W/m2
01:17 40.5 °F 22.3 °F 30.13 in Calm   1.0 mph 48 % 0.00 in 0 W/m2
01:22 40.5 °F 21.8 °F 30.13 in Calm   3.0 mph 47 % 0.00 in 0 W/m2
01:27 40.8 °F 22.1 °F 30.13 in Calm   3.0 mph 47 % 0.00 in 0 W/m2
01:32 40.9 °F 22.2 °F 30.13 in Calm   1.0 mph 47 % 0.00 in 0 W/m2
01:37 40.8 °F 22.1 °F 30.13 in Calm     47 % 0.00 in 0 W/m2
01:42 40.5 °F 21.8 °F 30.13 in Calm     47 % 0.00 in 0 W/m2
01:47 40.1 °F 22.0 °F 30.13 in Calm     48 % 0.00 in 0 W/m2
01:49 40.0 °F 21.9 °F 30.13 in Calm     48 % 0.00 in 0 W/m2
01:54 39.9 °F 21.3 °F 30.13 in Calm   1.0 mph 47 % 0.00 in 0 W/m2
01:59 40.1 °F 21.5 °F 30.13 in Calm   1.0 mph 47 % 0.00 in 0 W/m2
02:04 40.1 °F 21.5 °F 30.14 in Calm   1.0 mph 47 % 0.00 in 0 W/m2
02:09 40.2 °F 20.0 °F 30.14 in Calm   3.0 mph 44 % 0.00 in 0 W/m2
02:14 40.9 °F 19.5 °F 30.14 in Calm   3.0 mph 42 % 0.00 in 0 W/m2
02:24 43.0 °F 17.8 °F 30.13 in Calm   4.0 mph 36 % 0.00 in 0 W/m2
02:29 43.8 °F 17.9 °F 30.13 in Calm   6.0 mph 35 % 0.00 in 0 W/m2
02:34 44.3 °F 18.3 °F 30.13 in Calm   6.0 mph 35 % 0.00 in 0 W/m2
02:39 44.4 °F 17.7 °F 30.13 in SSE 2.0 mph 4.0 mph 34 % 0.00 in 0 W/m2
02:44 44.5 °F 17.8 °F 30.13 in Calm   4.0 mph 34 % 0.00 in 0 W/m2
02:49 44.5 °F 17.1 °F 30.12 in Calm   4.0 mph 33 % 0.00 in 0 W/m2
02:54 44.5 °F 17.8 °F 30.12 in Calm   4.0 mph 34 % 0.00 in 0 W/m2
02:59 44.4 °F 17.7 °F 30.12 in Calm   4.0 mph 34 % 0.00 in 0 W/m2
03:04 44.3 °F 17.7 °F 30.12 in Calm   3.0 mph 34 % 0.00 in 0 W/m2
03:09 44.0 °F 17.4 °F 30.12 in Calm   1.0 mph 34 % 0.00 in 0 W/m2
03:14 43.8 °F 17.2 °F 30.12 in Calm   3.0 mph 34 % 0.00 in 0 W/m2
03:19 43.7 °F 16.4 °F 30.11 in Calm   3.0 mph 33 % 0.00 in 0 W/m2
03:24 43.8 °F 16.5 °F 30.11 in SSE 2.0 mph 3.0 mph 33 % 0.00 in 0 W/m2
03:29 43.9 °F 16.6 °F 30.11 in Calm   3.0 mph 33 % 0.00 in 0 W/m2
03:34 44.0 °F 16.7 °F 30.12 in Calm   3.0 mph 33 % 0.00 in 0 W/m2
03:39 44.1 °F 17.5 °F 30.12 in Calm   1.0 mph 34 % 0.00 in 0 W/m2
03:44 43.8 °F 17.9 °F 30.11 in Calm   1.0 mph 35 % 0.00 in 0 W/m2
03:49 43.3 °F 18.7 °F 30.12 in Calm     37 % 0.00 in 0 W/m2
03:54 42.6 °F 18.7 °F 30.12 in Calm     38 % 0.00 in 0 W/m2
03:59 41.8 °F 18.0 °F 30.12 in Calm   1.0 mph 38 % 0.00 in 0 W/m2
04:04 41.3 °F 18.2 °F 30.12 in Calm   1.0 mph 39 % 0.00 in 0 W/m2
04:09 40.9 °F 17.8 °F 30.11 in Calm     39 % 0.00 in 0 W/m2
04:14 40.7 °F 17.0 °F 30.11 in Calm   3.0 mph 38 % 0.00 in 0 W/m2
04:19 41.1 °F 16.8 °F 30.11 in Calm   3.0 mph 37 % 0.00 in 0 W/m2
04:24 41.3 °F 16.9 °F 30.11 in Calm     37 % 0.00 in 0 W/m2
04:29 41.4 °F 17.0 °F 30.11 in Calm   1.0 mph 37 % 0.00 in 0 W/m2
04:34 41.4 °F 17.7 °F 30.11 in South 1.0 mph 1.0 mph 38 % 0.00 in 0 W/m2
04:44 41.1 °F 17.4 °F 30.11 in Calm   1.0 mph 38 % 0.00 in 0 W/m2
04:49 41.0 °F 16.7 °F 30.11 in Calm   2.0 mph 37 % 0.00 in 0 W/m2
04:54 41.3 °F 15.7 °F 30.11 in SSW 4.0 mph 4.0 mph 35 % 0.00 in 0 W/m2
04:59 41.9 °F 15.5 °F 30.11 in Calm   6.0 mph 34 % 0.00 in 0 W/m2
05:04 42.8 °F 15.6 °F 30.11 in SW 2.0 mph 6.0 mph 33 % 0.00 in 0 W/m2
05:09 43.5 °F 15.5 °F 30.12 in SSW 2.0 mph 4.0 mph 32 % 0.00 in 0 W/m2
05:14 44.0 °F 15.3 °F 30.12 in Calm   4.0 mph 31 % 0.00 in 0 W/m2
05:20 44.1 °F 15.3 °F 30.11 in Calm   6.0 mph 31 % 0.00 in 0 W/m2
05:22 44.0 °F 16.0 °F 30.12 in Calm   6.0 mph 32 % 0.00 in 0 W/m2
05:27 43.8 °F 15.8 °F 30.12 in South 5.0 mph 6.0 mph 32 % 0.00 in 0 W/m2
05:32 43.6 °F 15.6 °F 30.12 in SSW 1.0 mph 6.0 mph 32 % 0.00 in 0 W/m2
05:37 43.6 °F 15.6 °F 30.12 in Calm   6.0 mph 32 % 0.00 in 0 W/m2
05:42 43.4 °F 15.5 °F 30.12 in Calm   6.0 mph 32 % 0.00 in 0 W/m2
05:47 43.4 °F 15.5 °F 30.12 in Calm   2.0 mph 32 % 0.00 in 0 W/m2
05:52 43.5 °F 15.5 °F 30.12 in Calm   3.0 mph 32 % 0.00 in 0 W/m2
05:57 43.4 °F 16.2 °F 30.12 in Calm   3.0 mph 33 % 0.00 in 0 W/m2
06:02 43.1 °F 15.2 °F 30.12 in Calm   3.0 mph 32 % 0.00 in 0 W/m2
06:07 42.9 °F 15.7 °F 30.12 in Calm   1.0 mph 33 % 0.00 in 0 W/m2
06:12 42.5 °F 16.1 °F 30.12 in Calm   1.0 mph 34 % 0.00 in 0 W/m2
06:17 42.0 °F 16.3 °F 30.12 in SSW 1.0 mph 1.0 mph 35 % 0.00 in 0 W/m2
06:22 41.5 °F 15.8 °F 30.12 in Calm   1.0 mph 35 % 0.00 in 0 W/m2
06:27 41.3 °F 15.7 °F 30.11 in Calm   1.0 mph 35 % 0.00 in 0 W/m2
06:32 41.3 °F 15.0 °F 30.11 in Calm   2.0 mph 34 % 0.00 in 0 W/m2
06:37 41.7 °F 14.7 °F 30.11 in Calm   3.0 mph 33 % 0.00 in 0 W/m2
06:42 42.2 °F 15.1 °F 30.11 in SSE 1.0 mph 5.0 mph 33 % 0.00 in 0 W/m2
06:47 42.6 °F 14.8 °F 30.11 in SSW 1.0 mph 5.0 mph 32 % 0.00 in 0 W/m2
06:52 43.0 °F 15.1 °F 30.11 in Calm   4.0 mph 32 % 0.00 in 0 W/m2
06:57 43.2 °F 15.3 °F 30.12 in Calm   3.0 mph 32 % 0.00 in 0 W/m2
07:02 43.3 °F 14.6 °F 30.12 in Calm   2.0 mph 31 % 0.00 in 0 W/m2
07:07 43.4 °F 14.7 °F 30.12 in Calm   2.0 mph 31 % 0.00 in 0 W/m2
07:12 43.2 °F 15.3 °F 30.12 in Calm   1.0 mph 32 % 0.00 in 5 W/m2
07:17 42.7 °F 16.2 °F 30.12 in Calm   1.0 mph 34 % 0.00 in 7 W/m2
07:22 42.2 °F 15.1 °F 30.12 in Calm   1.0 mph 33 % 0.00 in 9 W/m2
07:27 41.6 °F 15.3 °F 30.12 in Calm   1.0 mph 34 % 0.00 in 11 W/m2
07:32 41.2 °F 16.2 °F 30.12 in Calm   1.0 mph 36 % 0.00 in 12 W/m2
07:37 40.8 °F 16.5 °F 30.12 in Calm   2.0 mph 37 % 0.00 in 14 W/m2
07:42 40.5 °F 16.2 °F 30.12 in Calm   2.0 mph 37 % 0.00 in 16 W/m2
07:47 40.5 °F 15.0 °F 30.12 in Calm   1.0 mph 35 % 0.00 in 18 W/m2
07:52 40.9 °F 15.3 °F 30.12 in Calm   2.0 mph 35 % 0.00 in 19 W/m2
07:57 41.5 °F 15.8 °F 30.12 in Calm   2.0 mph 35 % 0.00 in 19 W/m2
08:02 42.1 °F 16.4 °F 30.12 in Calm   2.0 mph 35 % 0.00 in 21 W/m2
08:08 42.6 °F 16.8 °F 30.12 in Calm   2.0 mph 35 % 0.00 in 23 W/m2
08:13 43.2 °F 16.7 °F 30.12 in Calm   1.0 mph 34 % 0.00 in 23 W/m2
08:18 43.8 °F 17.2 °F 30.13 in Calm   1.0 mph 34 % 0.00 in 25 W/m2
08:19 44.0 °F 18.1 °F 30.12 in SSE 1.0 mph 2.0 mph 35 % 0.00 in 26 W/m2
08:24 44.9 °F 16.8 °F 30.13 in Calm   3.0 mph 32 % 0.00 in 130 W/m2
08:29 46.1 °F 17.1 °F 30.13 in Calm   3.0 mph 31 % 0.00 in 227 W/m2
08:34 47.7 °F 18.5 °F 30.13 in Calm   2.0 mph 31 % 0.00 in 246 W/m2
08:39 49.4 °F 17.6 °F 30.13 in Calm   2.0 mph 28 % 0.00 in 267 W/m2
08:44 51.2 °F 16.5 °F 30.13 in Calm   1.0 mph 25 % 0.00 in 287 W/m2
08:49 52.7 °F 17.8 °F 30.13 in Calm   1.0 mph 25 % 0.00 in 304 W/m2
08:54 54.1 °F 18.1 °F 30.14 in Calm   1.0 mph 24 % 0.00 in 322 W/m2
08:59 55.6 °F 18.3 °F 30.13 in Calm   4.0 mph 23 % 0.00 in 336 W/m2
09:04 56.5 °F 19.1 °F 30.13 in Calm   4.0 mph 23 % 0.00 in 357 W/m2
09:05 56.6 °F 19.2 °F 30.13 in South 1.0 mph 4.0 mph 23 % 0.00 in 360 W/m2
09:10 57.1 °F 19.6 °F 30.13 in Calm   2.0 mph 23 % 0.00 in 376 W/m2
09:15 57.7 °F 19.1 °F 30.13 in Calm   3.0 mph 22 % 0.00 in 392 W/m2
09:20 58.3 °F 20.6 °F 30.13 in Calm   3.0 mph 23 % 0.00 in 408 W/m2
09:25 58.9 °F 19.0 °F 30.12 in Calm   2.0 mph 21 % 0.00 in 422 W/m2
09:30 59.7 °F 20.7 °F 30.12 in Calm   3.0 mph 22 % 0.00 in 438 W/m2
09:35 60.2 °F 20.1 °F 30.12 in Calm   3.0 mph 21 % 0.00 in 452 W/m2
09:40 61.1 °F 19.7 °F 30.12 in Calm   3.0 mph 20 % 0.00 in 469 W/m2
09:45 61.8 °F 21.4 °F 30.12 in Calm   3.0 mph 21 % 0.00 in 485 W/m2
09:50 62.5 °F 19.6 °F 30.11 in Calm   2.0 mph 19 % 0.00 in 499 W/m2
09:55 63.1 °F 20.1 °F 30.11 in Calm   3.0 mph 19 % 0.00 in 515 W/m2
10:00 63.4 °F 21.6 °F 30.10 in Calm   4.0 mph 20 % 0.00 in 527 W/m2
10:05 64.0 °F 20.9 °F 30.11 in Calm   4.0 mph 19 % 0.00 in 541 W/m2
10:10 64.9 °F 21.6 °F 30.10 in SW 1.0 mph 2.0 mph 19 % 0.00 in 554 W/m2
10:15 65.2 °F 20.6 °F 30.10 in Calm   2.0 mph 18 % 0.00 in 566 W/m2
10:19 65.5 °F 20.8 °F 30.10 in Calm   4.0 mph 18 % 0.00 in 578 W/m2
10:24 66.0 °F 21.2 °F 30.10 in Calm   4.0 mph 18 % 0.00 in 591 W/m2
10:29 66.6 °F 21.7 °F 30.10 in Calm   5.0 mph 18 % 0.00 in 603 W/m2
10:34 66.8 °F 20.5 °F 30.10 in SW 1.0 mph 5.0 mph 17 % 0.00 in 612 W/m2
10:39 66.8 °F 23.2 °F 30.09 in Calm   5.0 mph 19 % 0.00 in 622 W/m2
10:44 67.4 °F 22.4 °F 30.09 in SSW 3.0 mph 5.0 mph 18 % 0.00 in 633 W/m2
10:49 67.9 °F 21.4 °F 30.09 in Calm   4.0 mph 17 % 0.00 in 643 W/m2
10:54 68.2 °F 21.7 °F 30.09 in SSW 1.0 mph 7.0 mph 17 % 0.00 in 652 W/m2
10:59 68.4 °F 21.8 °F 30.09 in Calm   7.0 mph 17 % 0.00 in 664 W/m2
11:05 68.9 °F 24.9 °F 30.09 in SSW 1.0 mph 3.0 mph 19 % 0.00 in 671 W/m2
11:10 69.5 °F 21.3 °F 30.08 in Calm   5.0 mph 16 % 0.00 in 686 W/m2
11:15 70.5 °F 19.0 °F 30.08 in SE 3.0 mph 6.0 mph 14 % 0.00 in 693 W/m2
11:20 71.3 °F 14.0 °F 30.08 in SSW 2.0 mph 7.0 mph 11 % 0.00 in 700 W/m2
11:25 71.6 °F 14.2 °F 30.08 in Calm   7.0 mph 11 % 0.00 in 705 W/m2
11:30 71.8 °F 18.3 °F 30.08 in Calm   4.0 mph 13 % 0.00 in 712 W/m2
11:35 72.2 °F 12.5 °F 30.08 in ESE 1.0 mph 6.0 mph 10 % 0.00 in 686 W/m2
11:40 72.5 °F 12.8 °F 30.07 in Calm   6.0 mph 10 % 0.00 in 362 W/m2
11:45 72.6 °F 12.8 °F 30.07 in East 2.0 mph 6.0 mph 10 % 0.00 in 666 W/m2
11:50 73.0 °F 10.8 °F 30.07 in ESE 4.0 mph 6.0 mph 9 % 0.00 in 626 W/m2
11:55 73.2 °F 8.3 °F 30.07 in ESE 3.0 mph 9.0 mph 8 % 0.00 in 737 W/m2
12:00 73.2 °F 10.9 °F 30.07 in SE 4.0 mph 9.0 mph 9 % 0.00 in 740 W/m2
12:05 73.5 °F 11.1 °F 30.06 in SSE 1.0 mph 8.0 mph 9 % 0.00 in 744 W/m2
12:10 73.6 °F 11.2 °F 30.06 in Calm   8.0 mph 9 % 0.00 in 744 W/m2
12:15 74.0 °F 11.5 °F 30.06 in Calm   4.0 mph 9 % 0.00 in 745 W/m2
12:20 74.3 °F 6.1 °F 30.05 in SSE 4.0 mph 4.0 mph 7 % 0.00 in 582 W/m2
12:25 74.6 °F 3.0 °F 30.05 in SSE 1.0 mph 4.0 mph 6 % 0.00 in 668 W/m2
12:30 74.6 °F 6.4 °F 30.05 in Calm   7.0 mph 7 % 0.00 in 752 W/m2
12:35 74.7 °F 6.4 °F 30.05 in Calm   7.0 mph 7 % 0.00 in 752 W/m2
12:40 74.8 °F 9.5 °F 30.04 in Calm   4.0 mph 8 % 0.00 in 752 W/m2
12:45 74.9 °F -0.7 °F 30.04 in Calm   4.0 mph 5 % 0.00 in 661 W/m2
12:50 75.0 °F 3.3 °F 30.03 in Calm   4.0 mph 6 % 0.00 in 615 W/m2
12:55 75.1 °F 3.4 °F 30.03 in Calm   4.0 mph 6 % 0.00 in 633 W/m2
13:00 75.3 °F 6.9 °F 30.02 in Calm   3.0 mph 7 % 0.00 in 738 W/m2
13:05 75.4 °F 7.0 °F 30.02 in ESE 3.0 mph 7.0 mph 7 % 0.00 in 338 W/m2
13:10 75.4 °F 3.6 °F 30.02 in Calm   7.0 mph 6 % 0.00 in 652 W/m2
13:15 75.2 °F 3.4 °F 30.01 in ENE 2.0 mph 7.0 mph 6 % 0.00 in 457 W/m2
13:20 75.3 °F 6.9 °F 30.01 in SE 3.0 mph 5.0 mph 7 % 0.00 in 552 W/m2
13:25 75.2 °F 6.8 °F 30.00 in Calm   3.0 mph 7 % 0.00 in 244 W/m2
13:30 75.3 °F 6.9 °F 30.00 in NNE 2.0 mph 7.0 mph 7 % 0.00 in 473 W/m2
13:35 75.4 °F 3.6 °F 30.00 in NNE 4.0 mph 7.0 mph 6 % 0.00 in 712 W/m2
13:40 75.8 °F 10.2 °F 30.00 in Calm   4.0 mph 8 % 0.00 in 714 W/m2
13:45 76.3 °F 0.3 °F 29.99 in Calm   3.0 mph 5 % 0.00 in 701 W/m2
13:50 76.5 °F 10.7 °F 29.99 in Calm   3.0 mph 8 % 0.00 in 700 W/m2
13:55 76.4 °F 4.3 °F 29.99 in Calm   5.0 mph 6 % 0.00 in 680 W/m2
14:01 76.4 °F 4.3 °F 29.98 in Calm   5.0 mph 6 % 0.00 in 670 W/m2
14:06 76.4 °F 7.7 °F 29.98 in NE 1.0 mph 4.0 mph 7 % 0.00 in 635 W/m2
14:11 76.5 °F 4.4 °F 29.98 in Calm   4.0 mph 6 % 0.00 in 594 W/m2
14:16 76.5 °F 4.4 °F 29.98 in NNE 1.0 mph 4.0 mph 6 % 0.00 in 624 W/m2
14:21 76.5 °F 7.8 °F 29.98 in Calm   4.0 mph 7 % 0.00 in 638 W/m2
14:26 76.4 °F 0.4 °F 29.97 in North 1.0 mph 3.0 mph 5 % 0.00 in 642 W/m2
14:31 76.6 °F 4.5 °F 29.97 in Calm   4.0 mph 6 % 0.00 in 629 W/m2
14:36 76.7 °F 7.9 °F 29.97 in NE 2.0 mph 5.0 mph 7 % 0.00 in 624 W/m2
14:41 76.6 °F 4.5 °F 29.97 in Calm   5.0 mph 6 % 0.00 in 554 W/m2
14:46 76.6 °F 7.8 °F 29.97 in Calm   6.0 mph 7 % 0.00 in 589 W/m2
14:51 76.7 °F 7.9 °F 29.97 in Calm   6.0 mph 7 % 0.00 in 598 W/m2
14:56 76.7 °F 4.5 °F 29.96 in Calm   3.0 mph 6 % 0.00 in 554 W/m2
15:01 76.8 °F 0.7 °F 29.96 in Calm   3.0 mph 5 % 0.00 in 538 W/m2
15:06 76.9 °F 0.7 °F 29.96 in Calm   3.0 mph 5 % 0.00 in 548 W/m2
15:11 76.7 °F 4.5 °F 29.96 in ESE 2.0 mph 2.0 mph 6 % 0.00 in 497 W/m2
15:16 76.5 °F 0.4 °F 29.96 in ESE 1.0 mph 2.0 mph 5 % 0.00 in 475 W/m2
15:21 76.4 °F 4.3 °F 29.96 in Calm   4.0 mph 6 % 0.00 in 501 W/m2
15:26 76.4 °F 10.7 °F 29.96 in NE 2.0 mph 4.0 mph 8 % 0.00 in 485 W/m2
15:31 76.4 °F 7.7 °F 29.96 in East 2.0 mph 3.0 mph 7 % 0.00 in 489 W/m2
15:36 76.4 °F 7.7 °F 29.96 in NE 1.0 mph 3.0 mph 7 % 0.00 in 439 W/m2
15:41 76.6 °F 10.8 °F 29.95 in Calm   4.0 mph 8 % 0.00 in 392 W/m2
15:46 76.4 °F 4.3 °F 29.95 in Calm   4.0 mph 6 % 0.00 in 250 W/m2
15:51 76.0 °F 7.4 °F 29.96 in NE 1.0 mph 4.0 mph 7 % 0.00 in 262 W/m2
15:56 75.6 °F 7.1 °F 29.96 in Calm   4.0 mph 7 % 0.00 in 246 W/m2
16:01 75.4 °F 3.6 °F 29.95 in Calm   4.0 mph 6 % 0.00 in 251 W/m2
16:06 75.3 °F 3.5 °F 29.96 in Calm   3.0 mph 6 % 0.00 in 288 W/m2
16:11 75.3 °F 6.9 °F 29.96 in NNE 1.0 mph 1.0 mph 7 % 0.00 in 274 W/m2
16:16 75.4 °F 9.9 °F 29.96 in Calm   2.0 mph 8 % 0.00 in 227 W/m2
16:21 75.5 °F 7.0 °F 29.96 in Calm   2.0 mph 7 % 0.00 in 192 W/m2
16:31 75.2 °F 9.8 °F 29.95 in Calm   2.0 mph 8 % 0.00 in 183 W/m2
16:36 74.9 °F 9.6 °F 29.95 in Calm   3.0 mph 8 % 0.00 in 127 W/m2
16:41 74.4 °F 9.2 °F 29.95 in Calm   3.0 mph 8 % 0.00 in 77 W/m2
16:46 73.8 °F 13.8 °F 29.95 in Calm   2.0 mph 10 % 0.00 in 72 W/m2
16:51 73.0 °F 13.1 °F 29.95 in Calm   1.0 mph 10 % 0.00 in 63 W/m2
16:56 72.1 °F 14.6 °F 29.95 in Calm   2.0 mph 11 % 0.00 in 60 W/m2
17:01 71.3 °F 17.9 °F 29.95 in Calm   2.0 mph 13 % 0.00 in 56 W/m2
17:06 70.4 °F 20.5 °F 29.95 in Calm     15 % 0.00 in 51 W/m2
17:11 69.4 °F 22.7 °F 29.95 in Calm     17 % 0.00 in 42 W/m2
17:17 68.4 °F 24.5 °F 29.95 in Calm     19 % 0.00 in 37 W/m2
17:22 67.4 °F 22.4 °F 29.95 in Calm     18 % 0.00 in 39 W/m2
17:27 66.5 °F 24.2 °F 29.95 in Calm     20 % 0.00 in 62 W/m2
17:32 65.7 °F 25.8 °F 29.95 in Calm     22 % 0.00 in 33 W/m2
17:37 65.0 °F 24.1 °F 29.94 in Calm     21 % 0.00 in 30 W/m2
17:42 64.4 °F 24.7 °F 29.94 in Calm     22 % 0.00 in 28 W/m2
17:47 63.9 °F 24.3 °F 29.94 in Calm     22 % 0.00 in 26 W/m2
17:52 63.4 °F 24.9 °F 29.94 in Calm     23 % 0.00 in 26 W/m2
SE Aurora, Colorado Weather
Compliments of Weather Underground - 2 mb
top